Pagrindinis puslapis
METAR-TAF:

METAR-TAF

Oro uostai :

Ørsta-Volda, Norvegija

platuma: 62-11N, ilguma: 006-04E, Aukštis: 7 m

Dabartinis oras

Ataskaita buvo paskelbta 21 minutes, ne 06:20 UTC
Vėjas 3 kt nuo kintamojo kryptimis
Temperatūra 1°C
Drėgmė 75%
Slėgis 996 hPa
Matomumas 10 km arba daugiau
Mažai debesys ne aukštis 900 ft
Išsisklaidę debesys ne aukštis 1600 ft
Su prošvaistėmis ne aukštis 2500 ft
Liūtis kaimynystėje

METAR: ENOV 020620Z VRB03KT 9999 VCSH FEW009 SCT016 BKN025 01/M03 Q0996 RMK WIND 2090FT 33022KT

Laikas: 07:41 (06:41 UTC)


TAF: trūkstamas

Orai ataskaitas ir orų prognozės (METAR, TAF).

turimą stotys yra geltonos ir raudonos taškus žemėlapyje.

Perkelti pele per norėdami pamatyti stoties vardą.

Tada spustelėkite, norėdami matyti oro stebėjimo ir prognozės.

Norėdami pakeisti žemėlapį: spustelėkite ant žalios mygtukų su juodo kryžiaus žemyn,; žalią mygtuką su brūkšneliu, jei norite nutolinti; arba žalių rodyklių gretimoms žemėlapius.


METAR-TAF: